createdAt,value
2023-05-10T00:01:21.169Z,71.62
2023-05-10T00:03:48.726Z,71.94
2023-05-10T00:06:15.962Z,71.63
2023-05-10T00:08:43.583Z,71.35
2023-05-10T00:11:16.440Z,71.68
2023-05-10T00:13:43.759Z,72.21
2023-05-10T00:16:10.846Z,72.00
2023-05-10T00:18:38.448Z,72.04
2023-05-10T00:21:06.153Z,71.86
2023-05-10T00:23:33.521Z,71.89
2023-05-10T00:26:00.666Z,71.92
2023-05-10T00:28:29.933Z,71.83
2023-05-10T00:30:57.260Z,72.94
2023-05-10T00:33:24.739Z,73.63
2023-05-10T00:35:51.946Z,73.37
2023-05-10T00:38:19.436Z,73.16
2023-05-10T00:40:46.460Z,73.15
2023-05-10T00:43:13.869Z,72.86
2023-05-10T00:45:41.433Z,72.96
2023-05-10T00:48:09.689Z,73.22
2023-05-10T00:50:36.793Z,73.86
2023-05-10T00:53:04.755Z,74.09
2023-05-10T00:55:32.237Z,74.05
2023-05-10T00:57:59.635Z,74.49
2023-05-10T01:00:29.869Z,74.13
2023-05-10T01:02:57.353Z,74.27
2023-05-10T01:05:24.625Z,74.15
2023-05-10T01:07:52.080Z,74.49
2023-05-10T01:10:19.679Z,74.22
2023-05-10T01:12:48.811Z,73.90
2023-05-10T01:15:17.782Z,73.83
2023-05-10T01:17:48.394Z,73.51
2023-05-10T01:20:16.546Z,73.08
2023-05-10T01:22:53.303Z,73.38
2023-05-10T01:25:55.748Z,73.65
2023-05-10T01:28:45.343Z,74.10
2023-05-10T01:31:39.434Z,73.57
2023-05-10T01:34:12.915Z,72.99
2023-05-10T01:36:46.724Z,72.30
2023-05-10T01:39:35.863Z,72.99
2023-05-10T01:42:18.885Z,72.47
2023-05-10T01:44:52.250Z,72.05
2023-05-10T01:47:44.303Z,72.62
2023-05-10T01:50:17.067Z,73.51
2023-05-10T01:52:49.231Z,73.75
2023-05-10T01:55:19.232Z,73.96
2023-05-10T01:57:52.134Z,74.32
2023-05-10T02:00:21.373Z,74.17
2023-05-10T02:02:50.852Z,74.96
2023-05-10T02:05:20.087Z,75.29
2023-05-10T02:07:48.460Z,76.33
2023-05-10T02:10:17.173Z,76.89
2023-05-10T02:12:47.188Z,76.79
2023-05-10T02:15:22.062Z,76.86
2023-05-10T02:17:49.869Z,77.11
2023-05-10T02:20:19.769Z,77.40
2023-05-10T02:22:50.313Z,77.01
2023-05-10T02:25:20.469Z,77.21
2023-05-10T02:27:49.426Z,77.08
2023-05-10T02:30:18.119Z,77.28
2023-05-10T02:32:48.031Z,77.21
2023-05-10T02:35:16.351Z,77.42
2023-05-10T02:37:45.112Z,77.82
2023-05-10T02:40:15.826Z,78.14
2023-05-10T02:42:45.873Z,78.46
2023-05-10T02:45:16.260Z,78.27
2023-05-10T02:47:43.435Z,78.74
2023-05-10T02:50:11.328Z,79.27
2023-05-10T02:52:43.552Z,79.29
2023-05-10T02:55:14.288Z,78.98
2023-05-10T02:57:47.366Z,78.73
2023-05-10T03:00:15.271Z,79.27
2023-05-10T03:02:43.431Z,79.36
2023-05-10T03:05:10.840Z,79.43
2023-05-10T03:07:37.883Z,79.79
2023-05-10T03:10:06.338Z,79.81
2023-05-10T03:12:41.817Z,79.68
2023-05-10T03:15:09.062Z,80.00
2023-05-10T03:17:47.341Z,80.19
2023-05-10T03:20:25.503Z,80.39
2023-05-10T03:22:57.467Z,80.46
2023-05-10T03:25:25.913Z,80.66
2023-05-10T03:27:53.444Z,80.37
2023-05-10T03:30:22.638Z,80.09
2023-05-10T03:32:49.671Z,80.20
2023-05-10T03:35:17.165Z,79.67
2023-05-10T03:37:44.260Z,79.44
2023-05-10T03:40:11.978Z,80.86
2023-05-10T03:42:40.100Z,81.80
2023-05-10T03:45:09.404Z,79.38
2023-05-10T03:47:36.389Z,78.41
2023-05-10T03:50:04.128Z,77.99
2023-05-10T03:52:31.170Z,78.31
2023-05-10T03:54:58.460Z,77.53
2023-05-10T03:57:25.937Z,74.76
2023-05-10T03:59:53.257Z,71.67
2023-05-10T04:02:21.055Z,68.72
2023-05-10T04:04:49.372Z,67.07
2023-05-10T04:07:16.561Z,66.25
2023-05-10T04:09:44.141Z,61.22
2023-05-10T04:12:11.276Z,58.83
2023-05-10T04:14:38.904Z,57.71
2023-05-10T04:17:09.233Z,56.00
2023-05-10T04:19:38.204Z,52.80
2023-05-10T04:22:05.701Z,51.99
2023-05-10T04:24:33.667Z,52.62
2023-05-10T04:27:00.730Z,52.43
2023-05-10T04:29:29.712Z,53.94
2023-05-10T04:32:00.758Z,51.57
2023-05-10T04:34:36.004Z,49.55
2023-05-10T04:37:06.524Z,48.24
2023-05-10T04:39:34.842Z,49.15
2023-05-10T04:42:04.034Z,45.32
2023-05-10T04:44:31.975Z,43.88
2023-05-10T05:16:34.204Z,44.37
2023-05-10T05:19:22.595Z,45.31
2023-05-10T05:27:46.180Z,44.17
2023-05-10T05:30:26.936Z,43.40
2023-05-10T05:35:59.282Z,41.57
2023-05-10T05:50:04.806Z,39.41
2023-05-10T05:52:47.623Z,39.35
2023-05-10T05:57:59.055Z,40.92
2023-05-10T06:00:43.087Z,41.22
2023-05-10T06:09:37.210Z,42.37
2023-05-10T06:23:40.922Z,42.72
2023-05-10T06:28:51.289Z,41.27
2023-05-10T06:31:34.382Z,41.68
2023-05-10T06:34:12.185Z,41.99
2023-05-10T06:36:40.537Z,42.21
2023-05-10T06:39:11.535Z,41.98
2023-05-10T06:41:58.664Z,42.53
2023-05-10T06:44:29.861Z,42.14
2023-05-10T06:52:27.644Z,42.40
2023-05-10T07:00:53.252Z,41.00
2023-05-10T07:03:25.401Z,41.08
2023-05-10T07:05:57.099Z,40.57
2023-05-10T07:08:28.271Z,40.85
2023-05-10T07:11:07.224Z,40.47
2023-05-10T07:13:35.830Z,40.54
2023-05-10T07:16:04.396Z,41.69
2023-05-10T07:18:40.310Z,38.48
2023-05-10T07:21:07.817Z,39.14
2023-05-10T07:23:36.284Z,38.42
2023-05-10T07:26:03.523Z,38.77
2023-05-10T07:28:41.720Z,38.06
2023-05-10T07:31:12.026Z,38.25
2023-05-10T07:33:40.347Z,38.33
2023-05-10T07:36:09.334Z,38.87
2023-05-10T07:38:40.919Z,39.01
2023-05-10T07:41:08.423Z,38.33
2023-05-10T07:43:38.827Z,38.30
2023-05-10T07:46:06.646Z,38.62
2023-05-10T07:48:35.767Z,38.28
2023-05-10T07:51:07.452Z,37.60
2023-05-10T07:53:35.338Z,38.14
2023-05-10T07:56:30.646Z,36.91
2023-05-10T07:59:02.300Z,37.57
2023-05-10T08:01:33.668Z,37.65
2023-05-10T08:04:03.129Z,38.33
2023-05-10T08:06:34.383Z,38.43
2023-05-10T08:09:02.709Z,37.96
2023-05-10T08:11:29.759Z,37.87
2023-05-10T08:13:59.252Z,37.44
2023-05-10T08:16:32.379Z,36.41
2023-05-10T08:19:00.693Z,36.82
2023-05-10T08:21:28.083Z,37.23
2023-05-10T08:23:56.020Z,37.08
2023-05-10T08:26:23.708Z,37.05
2023-05-10T08:28:51.703Z,35.20
2023-05-10T08:31:20.810Z,34.44
2023-05-10T08:33:48.932Z,32.63
2023-05-10T08:36:31.102Z,33.37
2023-05-10T08:39:04.532Z,32.42
2023-05-10T08:41:38.005Z,33.35
2023-05-10T08:44:09.344Z,33.50
2023-05-10T08:46:44.027Z,33.60
2023-05-10T08:49:20.308Z,33.81
2023-05-10T08:51:56.741Z,31.22
2023-05-10T08:54:30.302Z,29.79
2023-05-10T08:56:58.504Z,28.85
2023-05-10T08:59:26.868Z,28.56
2023-05-10T09:01:57.007Z,28.55
2023-05-10T09:04:27.713Z,27.82
2023-05-10T09:06:55.771Z,27.72
2023-05-10T09:09:24.802Z,27.75
2023-05-10T09:11:54.485Z,27.12
2023-05-10T09:17:08.554Z,27.28
2023-05-10T09:22:18.834Z,26.09
2023-05-10T09:24:47.572Z,26.24
2023-05-10T09:27:15.556Z,26.64
2023-05-10T09:29:44.809Z,25.57
2023-05-10T09:32:13.870Z,26.02
2023-05-10T09:35:00.435Z,24.57
2023-05-10T09:37:38.188Z,25.36
2023-05-10T09:40:12.322Z,24.36
2023-05-10T09:42:54.518Z,24.09
2023-05-10T09:45:24.240Z,24.84
2023-05-10T09:47:53.549Z,26.84
2023-05-10T09:50:21.737Z,28.33
2023-05-10T09:53:04.114Z,30.14
2023-05-10T09:55:37.616Z,31.14
2023-05-10T10:28:41.178Z,34.92
2023-05-10T10:31:35.479Z,34.98
2023-05-10T10:34:11.251Z,34.46
2023-05-10T10:39:51.530Z,31.87
2023-05-10T11:42:08.911Z,28.49
2023-05-10T11:44:48.562Z,28.90
2023-05-10T11:47:17.727Z,29.35
2023-05-10T11:49:46.131Z,29.99
2023-05-10T11:52:13.598Z,30.66
2023-05-10T11:54:55.428Z,30.89
2023-05-10T11:57:28.259Z,32.07
2023-05-10T11:59:58.613Z,32.88
2023-05-10T12:02:26.353Z,34.08
2023-05-10T12:04:54.352Z,34.43
2023-05-10T12:07:21.607Z,35.56
2023-05-10T12:10:09.750Z,36.81
2023-05-10T12:12:40.901Z,38.25
2023-05-10T12:15:23.532Z,39.28
2023-05-10T12:36:43.409Z,38.22
2023-05-10T12:39:11.441Z,37.61
2023-05-10T12:41:40.041Z,36.93
2023-05-10T12:44:08.714Z,35.65
2023-05-10T12:46:36.791Z,34.48
2023-05-10T12:49:09.762Z,34.48
2023-05-10T12:51:39.881Z,34.41
2023-05-10T12:54:12.786Z,34.60
2023-05-10T12:56:42.759Z,33.83
2023-05-10T12:59:10.418Z,34.32
2023-05-10T13:01:42.719Z,34.93
2023-05-10T13:04:14.662Z,34.88
2023-05-10T13:06:46.513Z,34.51
2023-05-10T13:09:15.527Z,34.18
2023-05-10T13:11:45.782Z,33.86
2023-05-10T13:14:14.647Z,33.27
2023-05-10T13:19:32.343Z,32.92
2023-05-10T13:21:59.771Z,32.69
2023-05-10T13:24:29.023Z,31.51
2023-05-10T13:26:56.602Z,32.02
2023-05-10T13:29:35.364Z,31.94
2023-05-10T13:32:04.209Z,31.07
2023-05-10T13:35:00.178Z,30.54
2023-05-10T13:37:28.450Z,31.08
2023-05-10T13:39:56.268Z,31.52
2023-05-10T13:42:24.778Z,31.55
2023-05-10T13:44:51.842Z,31.90
2023-05-10T13:47:19.829Z,30.72
2023-05-10T13:49:46.964Z,30.40
2023-05-10T13:52:14.897Z,30.81
2023-05-10T13:54:42.744Z,31.14
2023-05-10T13:57:10.365Z,31.40
2023-05-10T13:59:37.651Z,30.70
2023-05-10T14:02:05.364Z,30.13
2023-05-10T14:04:32.924Z,30.00
2023-05-10T14:07:01.204Z,30.19
2023-05-10T14:09:28.546Z,29.95
2023-05-10T14:12:00.705Z,29.74
2023-05-10T14:14:29.538Z,29.84
2023-05-10T14:16:58.063Z,28.54
2023-05-10T14:19:25.500Z,27.85
2023-05-10T14:21:56.358Z,28.24
2023-05-10T14:24:23.728Z,29.26
2023-05-10T14:29:36.380Z,28.27
2023-05-10T14:32:06.665Z,28.97
2023-05-10T14:34:35.707Z,29.02
2023-05-10T14:37:05.051Z,28.54
2023-05-10T14:42:26.820Z,29.29
2023-05-10T14:44:59.473Z,29.66
2023-05-10T14:47:31.543Z,29.08
2023-05-10T14:49:59.803Z,29.36
2023-05-10T14:53:05.139Z,29.17
2023-05-10T14:55:32.443Z,29.22
2023-05-10T14:58:00.568Z,29.34
2023-05-10T15:00:34.556Z,29.52
2023-05-10T15:03:16.773Z,30.11
2023-05-10T15:05:44.868Z,29.27
2023-05-10T15:08:17.078Z,29.54
2023-05-10T15:10:44.910Z,29.82
2023-05-10T15:13:13.780Z,30.09
2023-05-10T15:15:42.143Z,30.73
2023-05-10T15:26:58.932Z,30.35
2023-05-10T15:38:14.466Z,31.11
2023-05-10T15:43:53.319Z,31.30
2023-05-10T15:50:16.755Z,32.00
2023-05-10T15:53:00.310Z,31.57
2023-05-10T18:52:47.667Z,56.08
2023-05-10T18:55:15.217Z,56.67
2023-05-10T18:57:45.303Z,57.72
2023-05-10T19:00:12.962Z,58.05
2023-05-10T19:02:44.898Z,59.00
2023-05-10T19:05:15.778Z,60.02
2023-05-10T19:07:49.316Z,59.70
2023-05-10T19:10:16.788Z,60.26
2023-05-10T19:12:44.517Z,60.50
2023-05-10T19:15:12.343Z,60.29
2023-05-10T19:17:40.566Z,61.32
2023-05-10T19:20:08.708Z,61.96
2023-05-10T19:23:09.209Z,63.05
2023-05-10T19:25:37.179Z,63.47
2023-05-10T19:28:04.666Z,62.87
2023-05-10T19:30:31.956Z,63.22
2023-05-10T19:32:59.950Z,63.55
2023-05-10T19:35:38.305Z,63.49
2023-05-10T19:38:06.382Z,63.83
2023-05-10T19:40:34.165Z,63.88
2023-05-10T19:43:02.143Z,63.81
2023-05-10T19:45:29.351Z,65.26
2023-05-10T19:47:56.985Z,64.94
2023-05-10T19:50:24.228Z,65.23
2023-05-10T19:52:51.818Z,65.75
2023-05-10T19:55:31.238Z,66.05
2023-05-10T19:58:02.172Z,67.44
2023-05-10T20:00:31.925Z,68.11
2023-05-10T20:02:59.985Z,67.99
2023-05-10T20:05:27.610Z,68.22
2023-05-10T20:07:55.162Z,68.24
2023-05-10T20:10:23.820Z,67.67
2023-05-10T20:12:53.394Z,68.26
2023-05-10T20:15:23.019Z,68.44
2023-05-10T20:17:52.124Z,69.41
2023-05-10T20:20:20.302Z,69.42
2023-05-10T20:22:49.603Z,69.92
2023-05-10T20:25:18.262Z,70.58
2023-05-10T20:27:50.999Z,70.94
2023-05-10T20:30:20.341Z,70.97
2023-05-10T20:32:48.426Z,70.95
2023-05-10T20:35:15.532Z,70.83
2023-05-10T20:37:43.806Z,71.91
2023-05-10T20:40:11.474Z,72.36
2023-05-10T20:42:38.995Z,72.45
2023-05-10T20:45:06.626Z,72.15
2023-05-10T20:47:34.260Z,72.30
2023-05-10T20:50:01.424Z,72.32
2023-05-10T20:52:28.758Z,72.03
2023-05-10T20:54:56.139Z,72.02
2023-05-10T20:57:23.565Z,71.92
2023-05-10T20:59:51.254Z,72.17
2023-05-10T21:02:18.670Z,71.59
2023-05-10T21:04:46.302Z,71.84
2023-05-10T21:07:13.878Z,71.80
2023-05-10T21:09:42.639Z,72.03
2023-05-10T21:12:10.395Z,72.31
2023-05-10T21:14:37.349Z,72.97
2023-05-10T21:17:05.172Z,72.88
2023-05-10T21:19:32.394Z,73.23
2023-05-10T21:22:00.123Z,73.49
2023-05-10T21:24:27.231Z,73.39
2023-05-10T21:26:54.764Z,73.41
2023-05-10T21:29:21.792Z,73.70
2023-05-10T21:31:49.352Z,74.55
2023-05-10T21:34:18.023Z,74.75
2023-05-10T21:36:45.761Z,75.72
2023-05-10T21:39:12.813Z,76.16
2023-05-10T21:41:40.377Z,75.75
2023-05-10T21:44:07.521Z,76.40
2023-05-10T21:46:34.893Z,76.47
2023-05-10T21:49:01.868Z,76.20
2023-05-10T21:51:29.365Z,76.24
2023-05-10T21:53:59.353Z,76.05
2023-05-10T21:56:27.509Z,76.13
2023-05-10T21:58:54.873Z,76.76
2023-05-10T22:01:22.276Z,76.76
2023-05-10T22:03:49.376Z,76.78
2023-05-10T22:06:16.826Z,76.73
2023-05-10T22:08:44.274Z,76.70
2023-05-10T22:11:11.872Z,76.78
2023-05-10T22:13:38.857Z,77.38
2023-05-10T22:16:06.968Z,76.93
2023-05-10T22:18:34.285Z,77.47
2023-05-10T22:21:01.805Z,78.12
2023-05-10T22:23:28.960Z,78.49
2023-05-10T22:26:01.268Z,78.36
2023-05-10T22:28:28.919Z,78.21
2023-05-10T22:30:56.320Z,78.38
2023-05-10T22:33:23.675Z,78.86
2023-05-10T22:35:51.067Z,79.08
2023-05-10T22:38:18.140Z,79.53
2023-05-10T22:40:45.695Z,79.83
2023-05-10T22:43:12.775Z,79.89
2023-05-10T22:45:40.520Z,79.98
2023-05-10T22:48:09.546Z,79.87
2023-05-10T22:50:37.134Z,79.98
2023-05-10T22:53:05.136Z,79.91
2023-05-10T22:55:32.500Z,79.91
2023-05-10T22:57:59.591Z,79.96
2023-05-10T23:00:27.253Z,80.37
2023-05-10T23:02:55.112Z,80.60
2023-05-10T23:05:23.564Z,80.58
2023-05-10T23:07:53.384Z,80.49
2023-05-10T23:10:20.910Z,80.54
2023-05-10T23:12:48.174Z,80.81
2023-05-10T23:15:15.515Z,80.65
2023-05-10T23:17:42.640Z,80.70
2023-05-10T23:20:10.742Z,80.67
2023-05-10T23:22:37.939Z,81.08
2023-05-10T23:25:05.912Z,80.81
2023-05-10T23:27:33.038Z,81.39
2023-05-10T23:30:00.464Z,81.99
2023-05-10T23:32:27.550Z,82.06
2023-05-10T23:34:55.065Z,82.44
2023-05-10T23:37:22.067Z,83.04
2023-05-10T23:39:49.437Z,82.80
2023-05-10T23:42:16.542Z,82.60
2023-05-10T23:44:44.101Z,82.79
2023-05-10T23:47:11.180Z,82.80
2023-05-10T23:49:38.717Z,82.89
2023-05-10T23:52:05.768Z,82.83
2023-05-10T23:54:33.054Z,83.01
2023-05-10T23:57:00.072Z,83.03
2023-05-10T23:59:27.605Z,83.59
